Current Weather

DuPage County

West Chicago, Illinois (KDPA)

Report from: Sunday, February 5, 2023 10:52 PM CST
Current time: Sunday, February 5, 2023 11:59 PM CST

Nearby weather
Weather history
Weather forecast

Temperature-4.4°C (24.1°F)
Dew point-7.2°C (19.0°F)
Winds Calm
Visibility8 mi. (12.9 km)
Clouds Sky clear
Altimeter30.13 in.Hg (1020 mB)
Relative humidity81 %
Density altitude-2,579 ft. (-786 m)
Sea-level pressure102.1 kPa (1021 mB, 30.15 in.Hg)
Remarks Automated weather observing station with precipitation discriminator
Flight conditions Visual Meteorological Conditions
Raw dataKDPA 060452Z 00000KT 8SM CLR M04/M07 A3013 RMK AO2 SLP211 I1000 T10441072
An error has occurred. This application may no longer respond until reloaded. Reload 🗙